sensor_id;sensor_type;location;lat;lon;timestamp;P1;durP1;ratioP1;P2;durP2;ratioP2
64710;SDS011;51139;45.626;6.850;2022-09-03T00:00:17;2.42;;;1.23;;
64710;SDS011;51139;45.626;6.850;2022-09-03T00:08:13;2.35;;;0.88;;
64710;SDS011;51139;45.626;6.850;2022-09-03T00:13:36;1.10;;;0.90;;
64710;SDS011;51139;45.626;6.850;2022-09-03T00:16:08;1.15;;;0.95;;
64710;SDS011;51139;45.626;6.850;2022-09-03T00:18:59;1.40;;;1.05;;
64710;SDS011;51139;45.626;6.850;2022-09-03T00:24:22;1.27;;;1.02;;
64710;SDS011;51139;45.626;6.850;2022-09-03T00:29:26;1.40;;;1.00;;
64710;SDS011;51139;45.626;6.850;2022-09-03T00:31:57;3.38;;;1.23;;
64710;SDS011;51139;45.626;6.850;2022-09-03T00:34:34;1.92;;;1.55;;
64710;SDS011;51139;45.626;6.850;2022-09-03T00:37:04;1.83;;;1.00;;
64710;SDS011;51139;45.626;6.850;2022-09-03T00:39:31;1.65;;;1.08;;
64710;SDS011;51139;45.626;6.850;2022-09-03T00:55:12;1.65;;;0.98;;
64710;SDS011;51139;45.626;6.850;2022-09-03T01:06:08;1.00;;;0.90;;
64710;SDS011;51139;45.626;6.850;2022-09-03T01:13:56;1.83;;;1.05;;
64710;SDS011;51139;45.626;6.850;2022-09-03T01:16:40;1.88;;;0.82;;
64710;SDS011;51139;45.626;6.850;2022-09-03T01:24:43;0.80;;;0.60;;
64710;SDS011;51139;45.626;6.850;2022-09-03T01:30:22;0.90;;;0.60;;
64710;SDS011;51139;45.626;6.850;2022-09-03T01:51:28;0.93;;;0.60;;
64710;SDS011;51139;45.626;6.850;2022-09-03T01:59:29;0.40;;;0.40;;
64710;SDS011;51139;45.626;6.850;2022-09-03T02:02:43;0.47;;;0.45;;
64710;SDS011;51139;45.626;6.850;2022-09-03T02:05:01;1.67;;;0.60;;
64710;SDS011;51139;45.626;6.850;2022-09-03T02:07:34;0.60;;;0.40;;
64710;SDS011;51139;45.626;6.850;2022-09-03T02:13:14;1.50;;;0.90;;
64710;SDS011;51139;45.626;6.850;2022-09-03T02:15:44;0.75;;;0.60;;
64710;SDS011;51139;45.626;6.850;2022-09-03T02:18:16;0.90;;;0.60;;
64710;SDS011;51139;45.626;6.850;2022-09-03T02:20:44;1.38;;;0.45;;
64710;SDS011;51139;45.626;6.850;2022-09-03T02:23:12;0.68;;;0.60;;
64710;SDS011;51139;45.626;6.850;2022-09-03T02:25:39;0.50;;;0.50;;
64710;SDS011;51139;45.626;6.850;2022-09-03T02:28:08;0.70;;;0.40;;
64710;SDS011;51139;45.626;6.850;2022-09-03T02:30:34;0.98;;;0.60;;
64710;SDS011;51139;45.626;6.850;2022-09-03T02:33:00;0.85;;;0.40;;
64710;SDS011;51139;45.626;6.850;2022-09-03T02:35:26;0.63;;;0.50;;
64710;SDS011;51139;45.626;6.850;2022-09-03T02:37:52;0.40;;;0.40;;
64710;SDS011;51139;45.626;6.850;2022-09-03T02:40:17;0.43;;;0.43;;
64710;SDS011;51139;45.626;6.850;2022-09-03T02:42:43;0.40;;;0.40;;
64710;SDS011;51139;45.626;6.850;2022-09-03T02:47:54;0.40;;;0.30;;
64710;SDS011;51139;45.626;6.850;2022-09-03T02:50:21;0.55;;;0.40;;
64710;SDS011;51139;45.626;6.850;2022-09-03T02:52:47;1.27;;;0.50;;
64710;SDS011;51139;45.626;6.850;2022-09-03T02:55:13;0.50;;;0.50;;
64710;SDS011;51139;45.626;6.850;2022-09-03T02:57:39;1.08;;;0.60;;
64710;SDS011;51139;45.626;6.850;2022-09-03T03:00:05;1.23;;;0.75;;
64710;SDS011;51139;45.626;6.850;2022-09-03T03:02:31;1.30;;;0.55;;
64710;SDS011;51139;45.626;6.850;2022-09-03T03:04:57;0.98;;;0.50;;
64710;SDS011;51139;45.626;6.850;2022-09-03T03:07:22;1.25;;;0.70;;
64710;SDS011;51139;45.626;6.850;2022-09-03T03:09:47;1.67;;;0.60;;
64710;SDS011;51139;45.626;6.850;2022-09-03T03:12:13;1.13;;;0.70;;
64710;SDS011;51139;45.626;6.850;2022-09-03T03:14:41;1.17;;;0.80;;
64710;SDS011;51139;45.626;6.850;2022-09-03T03:17:06;0.50;;;0.50;;
64710;SDS011;51139;45.626;6.850;2022-09-03T03:19:32;1.08;;;0.60;;
64710;SDS011;51139;45.626;6.850;2022-09-03T03:21:57;2.17;;;0.70;;
64710;SDS011;51139;45.626;6.850;2022-09-03T03:24:22;1.48;;;0.70;;
64710;SDS011;51139;45.626;6.850;2022-09-03T03:26:48;0.85;;;0.60;;
64710;SDS011;51139;45.626;6.850;2022-09-03T03:29:15;0.80;;;0.60;;
64710;SDS011;51139;45.626;6.850;2022-09-03T03:31:44;0.60;;;0.50;;
64710;SDS011;51139;45.626;6.850;2022-09-03T03:34:10;0.63;;;0.47;;
64710;SDS011;51139;45.626;6.850;2022-09-03T03:36:35;0.70;;;0.47;;
64710;SDS011;51139;45.626;6.850;2022-09-03T03:39:01;0.73;;;0.50;;
64710;SDS011;51139;45.626;6.850;2022-09-03T03:41:34;1.15;;;0.50;;
64710;SDS011;51139;45.626;6.850;2022-09-03T03:44:01;0.50;;;0.40;;
64710;SDS011;51139;45.626;6.850;2022-09-03T03:46:32;1.05;;;0.50;;
64710;SDS011;51139;45.626;6.850;2022-09-03T03:48:59;2.15;;;0.57;;
64710;SDS011;51139;45.626;6.850;2022-09-03T03:51:25;0.93;;;0.65;;
64710;SDS011;51139;45.626;6.850;2022-09-03T03:53:53;1.35;;;0.50;;
64710;SDS011;51139;45.626;6.850;2022-09-03T03:56:20;0.70;;;0.50;;
64710;SDS011;51139;45.626;6.850;2022-09-03T03:58:45;0.50;;;0.50;;
64710;SDS011;51139;45.626;6.850;2022-09-03T04:01:13;0.60;;;0.60;;
64710;SDS011;51139;45.626;6.850;2022-09-03T04:03:40;0.43;;;0.40;;
64710;SDS011;51139;45.626;6.850;2022-09-03T04:06:06;0.85;;;0.60;;
64710;SDS011;51139;45.626;6.850;2022-09-03T04:08:34;0.90;;;0.60;;
64710;SDS011;51139;45.626;6.850;2022-09-03T04:11:04;0.93;;;0.50;;
64710;SDS011;51139;45.626;6.850;2022-09-03T04:13:32;1.65;;;0.80;;
64710;SDS011;51139;45.626;6.850;2022-09-03T04:16:03;0.98;;;0.80;;
64710;SDS011;51139;45.626;6.850;2022-09-03T04:18:31;1.05;;;0.50;;
64710;SDS011;51139;45.626;6.850;2022-09-03T04:20:59;0.63;;;0.50;;
64710;SDS011;51139;45.626;6.850;2022-09-03T04:23:28;0.77;;;0.60;;
64710;SDS011;51139;45.626;6.850;2022-09-03T04:26:03;0.90;;;0.60;;
64710;SDS011;51139;45.626;6.850;2022-09-03T04:28:31;0.50;;;0.50;;
64710;SDS011;51139;45.626;6.850;2022-09-03T04:31:03;0.95;;;0.63;;
64710;SDS011;51139;45.626;6.850;2022-09-03T04:33:31;1.42;;;0.63;;
64710;SDS011;51139;45.626;6.850;2022-09-03T04:38:35;0.60;;;0.50;;
64710;SDS011;51139;45.626;6.850;2022-09-03T04:41:02;1.95;;;0.77;;
64710;SDS011;51139;45.626;6.850;2022-09-03T04:43:29;0.77;;;0.50;;
64710;SDS011;51139;45.626;6.850;2022-09-03T04:45:55;0.55;;;0.50;;
64710;SDS011;51139;45.626;6.850;2022-09-03T04:48:24;0.60;;;0.50;;
64710;SDS011;51139;45.626;6.850;2022-09-03T04:50:50;1.27;;;0.70;;
64710;SDS011;51139;45.626;6.850;2022-09-03T04:53:15;2.35;;;0.68;;
64710;SDS011;51139;45.626;6.850;2022-09-03T04:55:41;1.45;;;0.60;;
64710;SDS011;51139;45.626;6.850;2022-09-03T04:58:06;1.33;;;0.70;;
64710;SDS011;51139;45.626;6.850;2022-09-03T05:00:31;0.90;;;0.60;;
64710;SDS011;51139;45.626;6.850;2022-09-03T05:03:00;0.50;;;0.50;;
64710;SDS011;51139;45.626;6.850;2022-09-03T05:05:25;0.40;;;0.40;;
64710;SDS011;51139;45.626;6.850;2022-09-03T05:07:51;0.95;;;0.50;;
64710;SDS011;51139;45.626;6.850;2022-09-03T05:10:17;0.30;;;0.30;;
64710;SDS011;51139;45.626;6.850;2022-09-03T05:12:46;2.75;;;0.55;;
64710;SDS011;51139;45.626;6.850;2022-09-03T05:15:13;0.50;;;0.47;;
64710;SDS011;51139;45.626;6.850;2022-09-03T05:17:39;0.55;;;0.40;;
64710;SDS011;51139;45.626;6.850;2022-09-03T05:20:05;0.65;;;0.50;;
64710;SDS011;51139;45.626;6.850;2022-09-03T05:22:34;0.85;;;0.50;;
64710;SDS011;51139;45.626;6.850;2022-09-03T05:24:59;3.25;;;0.70;;
64710;SDS011;51139;45.626;6.850;2022-09-03T05:27:25;0.60;;;0.60;;
64710;SDS011;51139;45.626;6.850;2022-09-03T05:29:50;0.47;;;0.40;;
64710;SDS011;51139;45.626;6.850;2022-09-03T05:32:15;1.13;;;0.50;;
64710;SDS011;51139;45.626;6.850;2022-09-03T05:34:41;0.52;;;0.50;;
64710;SDS011;51139;45.626;6.850;2022-09-03T05:37:07;0.45;;;0.43;;
64710;SDS011;51139;45.626;6.850;2022-09-03T05:39:33;0.93;;;0.55;;
64710;SDS011;51139;45.626;6.850;2022-09-03T05:41:58;1.15;;;0.57;;
64710;SDS011;51139;45.626;6.850;2022-09-03T05:44:24;0.90;;;0.55;;
64710;SDS011;51139;45.626;6.850;2022-09-03T05:46:49;0.60;;;0.50;;
64710;SDS011;51139;45.626;6.850;2022-09-03T05:49:16;1.20;;;0.65;;
64710;SDS011;51139;45.626;6.850;2022-09-03T05:51:41;1.85;;;0.60;;
64710;SDS011;51139;45.626;6.850;2022-09-03T05:54:08;0.80;;;0.65;;
64710;SDS011;51139;45.626;6.850;2022-09-03T05:56:35;1.42;;;0.70;;
64710;SDS011;51139;45.626;6.850;2022-09-03T05:59:03;1.52;;;0.68;;
64710;SDS011;51139;45.626;6.850;2022-09-03T06:01:32;9.40;;;1.33;;
64710;SDS011;51139;45.626;6.850;2022-09-03T06:04:05;1.38;;;0.98;;
64710;SDS011;51139;45.626;6.850;2022-09-03T06:06:33;0.60;;;0.45;;
64710;SDS011;51139;45.626;6.850;2022-09-03T06:09:02;0.52;;;0.50;;
64710;SDS011;51139;45.626;6.850;2022-09-03T06:11:36;0.90;;;0.52;;
64710;SDS011;51139;45.626;6.850;2022-09-03T06:14:03;2.58;;;1.10;;
64710;SDS011;51139;45.626;6.850;2022-09-03T06:16:32;2.20;;;0.93;;
64710;SDS011;51139;45.626;6.850;2022-09-03T06:18:58;1.38;;;0.60;;
64710;SDS011;51139;45.626;6.850;2022-09-03T06:21:26;0.93;;;0.70;;
64710;SDS011;51139;45.626;6.850;2022-09-03T06:23:53;1.58;;;0.70;;
64710;SDS011;51139;45.626;6.850;2022-09-03T06:26:21;5.22;;;0.98;;
64710;SDS011;51139;45.626;6.850;2022-09-03T06:28:47;1.85;;;0.85;;
64710;SDS011;51139;45.626;6.850;2022-09-03T06:31:14;1.13;;;0.70;;
64710;SDS011;51139;45.626;6.850;2022-09-03T06:33:42;1.73;;;0.75;;
64710;SDS011;51139;45.626;6.850;2022-09-03T06:36:09;2.03;;;0.90;;
64710;SDS011;51139;45.626;6.850;2022-09-03T06:38:37;1.60;;;0.80;;
64710;SDS011;51139;45.626;6.850;2022-09-03T06:41:08;0.73;;;0.50;;
64710;SDS011;51139;45.626;6.850;2022-09-03T06:43:36;0.95;;;0.60;;
64710;SDS011;51139;45.626;6.850;2022-09-03T06:46:03;0.93;;;0.40;;
64710;SDS011;51139;45.626;6.850;2022-09-03T06:48:34;0.95;;;0.50;;
64710;SDS011;51139;45.626;6.850;2022-09-03T06:53:31;3.28;;;0.90;;
64710;SDS011;51139;45.626;6.850;2022-09-03T06:56:02;1.77;;;0.70;;
64710;SDS011;51139;45.626;6.850;2022-09-03T06:58:31;0.68;;;0.60;;
64710;SDS011;51139;45.626;6.850;2022-09-03T07:03:37;0.30;;;0.30;;
64710;SDS011;51139;45.626;6.850;2022-09-03T07:06:04;1.05;;;0.52;;
64710;SDS011;51139;45.626;6.850;2022-09-03T07:08:31;0.73;;;0.50;;
64710;SDS011;51139;45.626;6.850;2022-09-03T07:11:01;1.52;;;0.50;;
64710;SDS011;51139;45.626;6.850;2022-09-03T07:13:33;0.52;;;0.50;;
64710;SDS011;51139;45.626;6.850;2022-09-03T07:16:25;0.70;;;0.70;;
64710;SDS011;51139;45.626;6.850;2022-09-03T07:18:53;0.85;;;0.40;;
64710;SDS011;51139;45.626;6.850;2022-09-03T07:21:20;1.33;;;0.55;;
64710;SDS011;51139;45.626;6.850;2022-09-03T07:23:47;0.70;;;0.50;;
64710;SDS011;51139;45.626;6.850;2022-09-03T07:26:17;1.33;;;0.60;;
64710;SDS011;51139;45.626;6.850;2022-09-03T07:28:48;1.30;;;0.70;;
64710;SDS011;51139;45.626;6.850;2022-09-03T07:31:15;0.65;;;0.60;;
64710;SDS011;51139;45.626;6.850;2022-09-03T07:33:46;1.05;;;0.50;;
64710;SDS011;51139;45.626;6.850;2022-09-03T07:36:15;2.47;;;0.80;;
64710;SDS011;51139;45.626;6.850;2022-09-03T07:38:42;1.88;;;0.70;;
64710;SDS011;51139;45.626;6.850;2022-09-03T07:41:12;0.70;;;0.60;;
64710;SDS011;51139;45.626;6.850;2022-09-03T07:43:42;1.10;;;0.60;;
64710;SDS011;51139;45.626;6.850;2022-09-03T07:46:13;0.90;;;0.60;;
64710;SDS011;51139;45.626;6.850;2022-09-03T07:48:45;0.80;;;0.60;;
64710;SDS011;51139;45.626;6.850;2022-09-03T07:51:11;2.13;;;0.73;;
64710;SDS011;51139;45.626;6.850;2022-09-03T07:53:36;2.67;;;0.90;;
64710;SDS011;51139;45.626;6.850;2022-09-03T07:56:05;1.02;;;0.60;;
64710;SDS011;51139;45.626;6.850;2022-09-03T07:58:34;1.77;;;0.60;;
64710;SDS011;51139;45.626;6.850;2022-09-03T08:01:05;1.30;;;0.65;;
64710;SDS011;51139;45.626;6.850;2022-09-03T08:03:33;0.63;;;0.50;;
64710;SDS011;51139;45.626;6.850;2022-09-03T08:06:02;0.68;;;0.60;;
64710;SDS011;51139;45.626;6.850;2022-09-03T08:08:29;0.70;;;0.60;;
64710;SDS011;51139;45.626;6.850;2022-09-03T08:11:07;1.10;;;0.60;;
64710;SDS011;51139;45.626;6.850;2022-09-03T08:13:41;0.82;;;0.63;;
64710;SDS011;51139;45.626;6.850;2022-09-03T08:16:09;1.17;;;0.68;;
64710;SDS011;51139;45.626;6.850;2022-09-03T08:18:36;1.00;;;0.73;;
64710;SDS011;51139;45.626;6.850;2022-09-03T08:21:06;3.10;;;0.80;;
64710;SDS011;51139;45.626;6.850;2022-09-03T08:23:37;2.00;;;0.77;;
64710;SDS011;51139;45.626;6.850;2022-09-03T08:26:03;1.10;;;0.80;;
64710;SDS011;51139;45.626;6.850;2022-09-03T08:28:30;0.65;;;0.65;;
64710;SDS011;51139;45.626;6.850;2022-09-03T08:30:58;2.42;;;1.00;;
64710;SDS011;51139;45.626;6.850;2022-09-03T08:33:29;1.52;;;0.80;;
64710;SDS011;51139;45.626;6.850;2022-09-03T08:36:04;1.83;;;0.98;;
64710;SDS011;51139;45.626;6.850;2022-09-03T08:38:32;1.42;;;1.17;;
64710;SDS011;51139;45.626;6.850;2022-09-03T08:41:23;1.05;;;0.80;;
64710;SDS011;51139;45.626;6.850;2022-09-03T08:46:34;1.33;;;0.80;;
64710;SDS011;51139;45.626;6.850;2022-09-03T08:49:08;2.30;;;0.75;;
64710;SDS011;51139;45.626;6.850;2022-09-03T08:51:37;0.90;;;0.80;;
64710;SDS011;51139;45.626;6.850;2022-09-03T08:54:06;0.82;;;0.82;;
64710;SDS011;51139;45.626;6.850;2022-09-03T08:56:34;1.20;;;1.00;;
64710;SDS011;51139;45.626;6.850;2022-09-03T08:59:04;2.05;;;0.90;;
64710;SDS011;51139;45.626;6.850;2022-09-03T09:07:22;1.17;;;1.00;;
64710;SDS011;51139;45.626;6.850;2022-09-03T09:21:23;1.23;;;0.90;;
64710;SDS011;51139;45.626;6.850;2022-09-03T09:23:52;2.22;;;0.80;;
64710;SDS011;51139;45.626;6.850;2022-09-03T09:26:24;1.15;;;0.90;;
64710;SDS011;51139;45.626;6.850;2022-09-03T09:28:54;1.50;;;0.90;;
64710;SDS011;51139;45.626;6.850;2022-09-03T09:31:26;1.65;;;0.95;;
64710;SDS011;51139;45.626;6.850;2022-09-03T09:33:52;2.25;;;0.88;;
64710;SDS011;51139;45.626;6.850;2022-09-03T09:36:17;1.55;;;0.82;;
64710;SDS011;51139;45.626;6.850;2022-09-03T09:38:44;1.80;;;1.10;;
64710;SDS011;51139;45.626;6.850;2022-09-03T09:43:47;2.72;;;1.40;;
64710;SDS011;51139;45.626;6.850;2022-09-03T09:46:14;1.65;;;1.00;;
64710;SDS011;51139;45.626;6.850;2022-09-03T09:48:46;2.25;;;1.00;;
64710;SDS011;51139;45.626;6.850;2022-09-03T09:51:22;2.72;;;1.13;;
64710;SDS011;51139;45.626;6.850;2022-09-03T09:56:41;1.70;;;1.00;;
64710;SDS011;51139;45.626;6.850;2022-09-03T09:59:09;1.63;;;1.02;;
64710;SDS011;51139;45.626;6.850;2022-09-03T10:01:36;2.60;;;0.98;;
64710;SDS011;51139;45.626;6.850;2022-09-03T10:06:34;1.83;;;0.90;;
64710;SDS011;51139;45.626;6.850;2022-09-03T10:09:20;2.90;;;1.10;;
64710;SDS011;51139;45.626;6.850;2022-09-03T10:11:55;1.67;;;1.10;;
64710;SDS011;51139;45.626;6.850;2022-09-03T10:14:26;1.17;;;0.80;;
64710;SDS011;51139;45.626;6.850;2022-09-03T10:17:13;1.70;;;1.10;;
64710;SDS011;51139;45.626;6.850;2022-09-03T10:19:49;1.33;;;0.90;;
64710;SDS011;51139;45.626;6.850;2022-09-03T10:28:32;2.97;;;1.10;;
64710;SDS011;51139;45.626;6.850;2022-09-03T10:36:38;2.60;;;1.08;;
64710;SDS011;51139;45.626;6.850;2022-09-03T10:39:12;1.58;;;1.05;;
64710;SDS011;51139;45.626;6.850;2022-09-03T10:41:49;2.13;;;1.48;;
64710;SDS011;51139;45.626;6.850;2022-09-03T10:44:42;2.75;;;1.13;;
64710;SDS011;51139;45.626;6.850;2022-09-03T10:47:31;3.70;;;1.30;;
64710;SDS011;51139;45.626;6.850;2022-09-03T10:55:11;2.00;;;1.00;;
64710;SDS011;51139;45.626;6.850;2022-09-03T10:57:54;1.40;;;0.90;;
64710;SDS011;51139;45.626;6.850;2022-09-03T11:00:45;1.83;;;1.10;;
64710;SDS011;51139;45.626;6.850;2022-09-03T11:08:59;3.17;;;1.20;;
64710;SDS011;51139;45.626;6.850;2022-09-03T11:11:46;1.88;;;1.02;;
64710;SDS011;51139;45.626;6.850;2022-09-03T11:14:22;2.15;;;0.98;;
64710;SDS011;51139;45.626;6.850;2022-09-03T11:17:01;1.92;;;1.35;;
64710;SDS011;51139;45.626;6.850;2022-09-03T11:19:35;4.25;;;1.13;;
64710;SDS011;51139;45.626;6.850;2022-09-03T11:22:10;2.92;;;1.30;;
64710;SDS011;51139;45.626;6.850;2022-09-03T11:24:37;3.42;;;1.20;;
64710;SDS011;51139;45.626;6.850;2022-09-03T11:27:13;1.70;;;1.00;;
64710;SDS011;51139;45.626;6.850;2022-09-03T11:29:52;2.28;;;1.10;;
64710;SDS011;51139;45.626;6.850;2022-09-03T11:35:12;2.45;;;1.17;;
64710;SDS011;51139;45.626;6.850;2022-09-03T11:37:51;1.83;;;1.00;;
64710;SDS011;51139;45.626;6.850;2022-09-03T11:40:32;1.25;;;1.00;;
64710;SDS011;51139;45.626;6.850;2022-09-03T11:43:12;1.92;;;1.20;;
64710;SDS011;51139;45.626;6.850;2022-09-03T11:48:52;2.50;;;1.08;;
64710;SDS011;51139;45.626;6.850;2022-09-03T11:54:22;3.40;;;1.13;;
64710;SDS011;51139;45.626;6.850;2022-09-03T11:56:50;2.08;;;1.02;;
64710;SDS011;51139;45.626;6.850;2022-09-03T12:04:23;1.85;;;1.00;;
64710;SDS011;51139;45.626;6.850;2022-09-03T12:18:15;1.98;;;0.80;;
64710;SDS011;51139;45.626;6.850;2022-09-03T12:21:09;1.20;;;0.90;;
64710;SDS011;51139;45.626;6.850;2022-09-03T12:26:15;1.95;;;1.00;;
64710;SDS011;51139;45.626;6.850;2022-09-03T12:28:48;2.00;;;0.90;;
64710;SDS011;51139;45.626;6.850;2022-09-03T12:31:19;1.98;;;1.13;;
64710;SDS011;51139;45.626;6.850;2022-09-03T12:33:58;1.80;;;1.15;;
64710;SDS011;51139;45.626;6.850;2022-09-03T12:36:25;3.95;;;1.17;;
64710;SDS011;51139;45.626;6.850;2022-09-03T12:44:29;1.23;;;1.00;;
64710;SDS011;51139;45.626;6.850;2022-09-03T12:49:33;1.42;;;1.00;;
64710;SDS011;51139;45.626;6.850;2022-09-03T12:52:02;1.52;;;1.08;;
64710;SDS011;51139;45.626;6.850;2022-09-03T12:54:36;1.67;;;1.08;;
64710;SDS011;51139;45.626;6.850;2022-09-03T12:57:10;1.23;;;1.00;;
64710;SDS011;51139;45.626;6.850;2022-09-03T12:59:40;2.10;;;1.10;;
64710;SDS011;51139;45.626;6.850;2022-09-03T13:02:17;3.42;;;1.13;;
64710;SDS011;51139;45.626;6.850;2022-09-03T13:04:49;1.65;;;1.05;;
64710;SDS011;51139;45.626;6.850;2022-09-03T13:07:24;1.48;;;1.10;;
64710;SDS011;51139;45.626;6.850;2022-09-03T13:09:57;0.90;;;0.80;;
64710;SDS011;51139;45.626;6.850;2022-09-03T13:12:29;1.55;;;1.00;;
64710;SDS011;51139;45.626;6.850;2022-09-03T13:15:03;1.27;;;0.90;;
64710;SDS011;51139;45.626;6.850;2022-09-03T13:25:50;2.03;;;1.35;;
64710;SDS011;51139;45.626;6.850;2022-09-03T13:33:49;2.10;;;0.93;;
64710;SDS011;51139;45.626;6.850;2022-09-03T13:36:23;2.15;;;0.95;;
64710;SDS011;51139;45.626;6.850;2022-09-03T13:38:55;1.70;;;0.93;;
64710;SDS011;51139;45.626;6.850;2022-09-03T13:41:37;1.52;;;0.95;;
64710;SDS011;51139;45.626;6.850;2022-09-03T13:44:51;2.72;;;1.20;;
64710;SDS011;51139;45.626;6.850;2022-09-03T13:47:17;1.33;;;1.00;;
64710;SDS011;51139;45.626;6.850;2022-09-03T13:50:09;1.60;;;1.00;;
64710;SDS011;51139;45.626;6.850;2022-09-03T13:55:48;2.53;;;1.00;;
64710;SDS011;51139;45.626;6.850;2022-09-03T13:58:18;1.00;;;0.90;;
64710;SDS011;51139;45.626;6.850;2022-09-03T14:03:24;1.92;;;1.17;;
64710;SDS011;51139;45.626;6.850;2022-09-03T14:25:50;1.75;;;1.08;;
64710;SDS011;51139;45.626;6.850;2022-09-03T14:28:28;1.30;;;0.90;;
64710;SDS011;51139;45.626;6.850;2022-09-03T14:31:04;1.90;;;1.20;;
64710;SDS011;51139;45.626;6.850;2022-09-03T14:33:57;2.78;;;0.93;;
64710;SDS011;51139;45.626;6.850;2022-09-03T14:47:22;1.55;;;1.23;;
64710;SDS011;51139;45.626;6.850;2022-09-03T15:00:45;2.15;;;1.23;;
64710;SDS011;51139;45.626;6.850;2022-09-03T15:06:09;2.95;;;1.30;;
64710;SDS011;51139;45.626;6.850;2022-09-03T15:08:53;2.22;;;1.25;;
64710;SDS011;51139;45.626;6.850;2022-09-03T15:11:32;2.17;;;1.30;;
64710;SDS011;51139;45.626;6.850;2022-09-03T15:14:18;3.17;;;1.52;;
64710;SDS011;51139;45.626;6.850;2022-09-03T15:31:36;2.72;;;1.20;;
64710;SDS011;51139;45.626;6.850;2022-09-03T15:37:16;2.65;;;1.20;;
64710;SDS011;51139;45.626;6.850;2022-09-03T15:39:47;2.58;;;1.10;;
64710;SDS011;51139;45.626;6.850;2022-09-03T15:42:25;3.65;;;1.10;;
64710;SDS011;51139;45.626;6.850;2022-09-03T15:44:52;1.83;;;1.10;;
64710;SDS011;51139;45.626;6.850;2022-09-03T15:47:31;1.83;;;1.02;;
64710;SDS011;51139;45.626;6.850;2022-09-03T15:50:31;2.28;;;1.00;;
64710;SDS011;51139;45.626;6.850;2022-09-03T15:53:03;1.73;;;1.17;;
64710;SDS011;51139;45.626;6.850;2022-09-03T15:56:00;1.70;;;1.10;;
64710;SDS011;51139;45.626;6.850;2022-09-03T15:58:44;2.33;;;1.30;;
64710;SDS011;51139;45.626;6.850;2022-09-03T16:01:26;1.92;;;1.13;;
64710;SDS011;51139;45.626;6.850;2022-09-03T16:06:49;1.52;;;0.90;;
64710;SDS011;51139;45.626;6.850;2022-09-03T16:09:33;2.28;;;1.10;;
64710;SDS011;51139;45.626;6.850;2022-09-03T16:14:50;1.83;;;1.27;;
64710;SDS011;51139;45.626;6.850;2022-09-03T16:20:02;1.55;;;1.05;;
64710;SDS011;51139;45.626;6.850;2022-09-03T16:22:33;2.10;;;1.00;;
64710;SDS011;51139;45.626;6.850;2022-09-03T16:27:39;2.50;;;1.20;;
64710;SDS011;51139;45.626;6.850;2022-09-03T16:44:12;1.60;;;1.17;;
64710;SDS011;51139;45.626;6.850;2022-09-03T16:58:42;1.80;;;1.45;;
64710;SDS011;51139;45.626;6.850;2022-09-03T17:01:35;1.73;;;1.13;;
64710;SDS011;51139;45.626;6.850;2022-09-03T17:04:52;1.65;;;1.20;;
64710;SDS011;51139;45.626;6.850;2022-09-03T17:15:44;2.17;;;1.35;;
64710;SDS011;51139;45.626;6.850;2022-09-03T17:18:45;1.92;;;1.23;;
64710;SDS011;51139;45.626;6.850;2022-09-03T17:21:34;1.27;;;1.00;;
64710;SDS011;51139;45.626;6.850;2022-09-03T17:44:07;2.65;;;1.30;;
64710;SDS011;51139;45.626;6.850;2022-09-03T17:49:44;2.50;;;1.15;;
64710;SDS011;51139;45.626;6.850;2022-09-03T17:54:58;1.88;;;1.23;;
64710;SDS011;51139;45.626;6.850;2022-09-03T17:57:45;3.03;;;1.50;;
64710;SDS011;51139;45.626;6.850;2022-09-03T18:00:31;2.45;;;1.13;;
64710;SDS011;51139;45.626;6.850;2022-09-03T18:03:25;2.88;;;1.15;;
64710;SDS011;51139;45.626;6.850;2022-09-03T18:05:57;1.88;;;1.13;;
64710;SDS011;51139;45.626;6.850;2022-09-03T18:11:39;5.00;;;1.50;;
64710;SDS011;51139;45.626;6.850;2022-09-03T18:14:16;2.92;;;1.50;;
64710;SDS011;51139;45.626;6.850;2022-09-03T18:16:51;3.70;;;2.20;;
64710;SDS011;51139;45.626;6.850;2022-09-03T18:19:29;3.08;;;1.90;;
64710;SDS011;51139;45.626;6.850;2022-09-03T18:22:19;2.30;;;1.55;;
64710;SDS011;51139;45.626;6.850;2022-09-03T18:25:07;3.05;;;1.60;;
64710;SDS011;51139;45.626;6.850;2022-09-03T18:27:56;3.95;;;1.38;;
64710;SDS011;51139;45.626;6.850;2022-09-03T18:30:46;2.53;;;1.40;;
64710;SDS011;51139;45.626;6.850;2022-09-03T18:33:31;2.13;;;1.48;;
64710;SDS011;51139;45.626;6.850;2022-09-03T18:36:15;1.67;;;1.10;;
64710;SDS011;51139;45.626;6.850;2022-09-03T18:39:09;2.53;;;1.40;;
64710;SDS011;51139;45.626;6.850;2022-09-03T18:43:02;2.17;;;1.58;;
64710;SDS011;51139;45.626;6.850;2022-09-03T18:52:27;6.40;;;5.32;;
64710;SDS011;51139;45.626;6.850;2022-09-03T18:58:09;2.35;;;1.33;;
64710;SDS011;51139;45.626;6.850;2022-09-03T19:04:13;2.13;;;1.33;;
64710;SDS011;51139;45.626;6.850;2022-09-03T19:07:08;3.20;;;1.40;;
64710;SDS011;51139;45.626;6.850;2022-09-03T19:09:57;2.28;;;1.67;;
64710;SDS011;51139;45.626;6.850;2022-09-03T19:15:57;2.08;;;1.15;;
64710;SDS011;51139;45.626;6.850;2022-09-03T19:21:49;2.03;;;1.42;;
64710;SDS011;51139;45.626;6.850;2022-09-03T19:24:38;2.22;;;1.30;;
64710;SDS011;51139;45.626;6.850;2022-09-03T19:27:30;1.83;;;1.30;;
64710;SDS011;51139;45.626;6.850;2022-09-03T19:36:59;2.08;;;1.30;;
64710;SDS011;51139;45.626;6.850;2022-09-03T19:39:59;1.95;;;1.48;;
64710;SDS011;51139;45.626;6.850;2022-09-03T19:48:56;2.00;;;1.17;;
64710;SDS011;51139;45.626;6.850;2022-09-03T19:54:32;2.30;;;1.37;;
64710;SDS011;51139;45.626;6.850;2022-09-03T19:57:18;1.75;;;1.20;;
64710;SDS011;51139;45.626;6.850;2022-09-03T20:00:04;2.40;;;1.40;;
64710;SDS011;51139;45.626;6.850;2022-09-03T20:02:49;2.83;;;1.77;;
64710;SDS011;51139;45.626;6.850;2022-09-03T20:05:33;3.25;;;1.40;;
64710;SDS011;51139;45.626;6.850;2022-09-03T20:08:19;3.17;;;1.60;;
64710;SDS011;51139;45.626;6.850;2022-09-03T20:11:07;2.08;;;1.40;;
64710;SDS011;51139;45.626;6.850;2022-09-03T20:13:40;3.20;;;1.60;;
64710;SDS011;51139;45.626;6.850;2022-09-03T20:16:31;2.38;;;1.40;;
64710;SDS011;51139;45.626;6.850;2022-09-03T20:19:52;1.63;;;1.35;;
64710;SDS011;51139;45.626;6.850;2022-09-03T20:21:57;3.97;;;1.90;;
64710;SDS011;51139;45.626;6.850;2022-09-03T20:43:57;3.63;;;1.75;;
64710;SDS011;51139;45.626;6.850;2022-09-03T20:54:41;3.47;;;1.90;;
64710;SDS011;51139;45.626;6.850;2022-09-03T20:57:20;4.82;;;1.90;;
64710;SDS011;51139;45.626;6.850;2022-09-03T21:05:19;3.75;;;1.92;;
64710;SDS011;51139;45.626;6.850;2022-09-03T21:10:33;2.60;;;1.70;;
64710;SDS011;51139;45.626;6.850;2022-09-03T21:13:17;2.72;;;1.83;;
64710;SDS011;51139;45.626;6.850;2022-09-03T21:16:48;3.42;;;1.70;;
64710;SDS011;51139;45.626;6.850;2022-09-03T21:24:21;3.53;;;1.77;;
64710;SDS011;51139;45.626;6.850;2022-09-03T21:26:58;4.50;;;1.73;;
64710;SDS011;51139;45.626;6.850;2022-09-03T21:29:41;3.03;;;1.70;;
64710;SDS011;51139;45.626;6.850;2022-09-03T21:32:16;3.25;;;1.90;;
64710;SDS011;51139;45.626;6.850;2022-09-03T21:37:21;3.85;;;1.98;;
64710;SDS011;51139;45.626;6.850;2022-09-03T21:39:55;3.20;;;1.70;;
64710;SDS011;51139;45.626;6.850;2022-09-03T21:42:34;4.20;;;1.83;;
64710;SDS011;51139;45.626;6.850;2022-09-03T21:45:24;3.30;;;1.83;;
64710;SDS011;51139;45.626;6.850;2022-09-03T21:48:38;3.25;;;1.80;;
64710;SDS011;51139;45.626;6.850;2022-09-03T21:50:59;4.72;;;1.40;;
64710;SDS011;51139;45.626;6.850;2022-09-03T21:53:29;2.78;;;1.58;;
64710;SDS011;51139;45.626;6.850;2022-09-03T21:56:08;1.98;;;1.60;;
64710;SDS011;51139;45.626;6.850;2022-09-03T21:58:52;2.45;;;1.80;;
64710;SDS011;51139;45.626;6.850;2022-09-03T22:01:47;2.92;;;2.05;;
64710;SDS011;51139;45.626;6.850;2022-09-03T22:04:13;3.80;;;2.00;;
64710;SDS011;51139;45.626;6.850;2022-09-03T22:09:25;2.60;;;1.73;;
64710;SDS011;51139;45.626;6.850;2022-09-03T22:12:19;3.47;;;1.90;;
64710;SDS011;51139;45.626;6.850;2022-09-03T22:14:53;2.90;;;1.95;;
64710;SDS011;51139;45.626;6.850;2022-09-03T22:20:11;4.28;;;2.78;;